createdAt,value
2018-07-13T00:00:58.996Z,18.84
2018-07-13T00:02:51.988Z,18.77
2018-07-13T00:03:52.062Z,18.74
2018-07-13T00:05:45.063Z,18.83
2018-07-13T00:06:45.172Z,18.65
2018-07-13T00:08:38.129Z,18.70
2018-07-13T00:09:38.192Z,18.63
2018-07-13T00:11:31.172Z,18.58
2018-07-13T00:12:31.253Z,18.60
2018-07-13T00:14:24.235Z,18.47
2018-07-13T00:15:24.342Z,18.55
2018-07-13T00:17:17.285Z,18.53
2018-07-13T00:18:17.346Z,18.38
2018-07-13T00:20:10.349Z,18.41
2018-07-13T00:21:10.407Z,18.34
2018-07-13T00:23:03.400Z,18.37
2018-07-13T00:24:03.473Z,18.31
2018-07-13T00:25:56.467Z,18.22
2018-07-13T00:26:56.530Z,18.13
2018-07-13T00:28:49.548Z,18.18
2018-07-13T00:29:49.593Z,18.18
2018-07-13T00:31:42.586Z,18.16
2018-07-13T00:32:42.660Z,18.15
2018-07-13T00:34:35.662Z,18.15
2018-07-13T00:35:35.726Z,18.20
2018-07-13T00:37:28.706Z,18.15
2018-07-13T00:38:28.770Z,18.10
2018-07-13T00:40:21.785Z,18.03
2018-07-13T00:41:21.849Z,18.10
2018-07-13T00:43:14.839Z,18.03
2018-07-13T00:44:14.904Z,18.08
2018-07-13T00:46:07.888Z,17.92
2018-07-13T00:47:07.945Z,17.89
2018-07-13T00:49:00.972Z,18.05
2018-07-13T00:50:01.003Z,17.94
2018-07-13T00:51:54.023Z,17.95
2018-07-13T00:52:54.089Z,17.92
2018-07-13T00:54:47.084Z,17.95
2018-07-13T00:55:47.130Z,17.90
2018-07-13T00:57:40.129Z,17.89
2018-07-13T00:58:40.191Z,17.95
2018-07-13T01:00:33.213Z,17.82
2018-07-13T01:01:33.256Z,17.85
2018-07-13T01:03:26.275Z,17.72
2018-07-13T01:04:26.344Z,17.63
2018-07-13T01:06:19.330Z,17.67
2018-07-13T01:07:19.389Z,17.68
2018-07-13T01:09:12.404Z,17.56
2018-07-13T01:10:12.446Z,17.67
2018-07-13T01:12:05.442Z,17.70
2018-07-13T01:13:05.497Z,17.67
2018-07-13T01:14:58.508Z,17.64
2018-07-13T01:15:58.572Z,17.60
2018-07-13T01:17:51.564Z,17.56
2018-07-13T01:18:51.625Z,17.54
2018-07-13T01:20:44.640Z,17.41
2018-07-13T01:21:44.701Z,17.51
2018-07-13T01:23:38.331Z,17.48
2018-07-13T01:24:38.258Z,17.44
2018-07-13T01:26:31.264Z,17.38
2018-07-13T01:27:31.324Z,17.20
2018-07-13T01:29:24.344Z,17.22
2018-07-13T01:30:24.388Z,17.20
2018-07-13T01:32:17.388Z,17.08
2018-07-13T01:33:17.454Z,17.08
2018-07-13T01:35:10.458Z,16.97
2018-07-13T01:36:10.508Z,17.05
2018-07-13T01:38:03.523Z,16.94
2018-07-13T01:39:03.574Z,16.93
2018-07-13T01:40:56.588Z,17.01
2018-07-13T01:41:56.662Z,16.97
2018-07-13T01:43:49.635Z,16.96
2018-07-13T01:44:49.698Z,16.96
2018-07-13T01:46:42.707Z,17.16
2018-07-13T01:47:42.768Z,17.22
2018-07-13T01:49:35.775Z,17.12
2018-07-13T01:50:35.833Z,17.12
2018-07-13T01:52:28.817Z,17.09
2018-07-13T01:53:28.897Z,17.02
2018-07-13T01:55:21.883Z,16.96
2018-07-13T01:56:21.929Z,17.01
2018-07-13T01:58:14.929Z,16.96
2018-07-13T01:59:14.998Z,16.94
2018-07-13T02:01:07.990Z,17.05
2018-07-13T02:02:08.043Z,17.06
2018-07-13T02:04:01.035Z,17.01
2018-07-13T02:05:01.132Z,17.04
2018-07-13T02:06:54.099Z,16.99
2018-07-13T02:07:54.155Z,16.96
2018-07-13T02:09:47.160Z,17.01
2018-07-13T02:10:47.211Z,16.91
2018-07-13T02:12:40.290Z,17.01
2018-07-13T02:13:40.294Z,17.06
2018-07-13T02:15:33.270Z,16.90
2018-07-13T02:16:33.347Z,17.08
2018-07-13T02:18:26.333Z,17.05
2018-07-13T02:19:26.423Z,17.01
2018-07-13T02:21:19.403Z,16.99
2018-07-13T02:22:19.451Z,16.91
2018-07-13T02:24:13.022Z,16.78
2018-07-13T02:25:13.052Z,16.78
2018-07-13T02:27:06.053Z,16.66
2018-07-13T02:28:06.092Z,16.65
2018-07-13T02:29:59.102Z,16.58
2018-07-13T02:30:59.159Z,16.58
2018-07-13T02:32:52.154Z,16.65
2018-07-13T02:33:52.304Z,16.51
2018-07-13T02:35:45.229Z,16.49
2018-07-13T02:36:45.280Z,16.56
2018-07-13T02:38:38.315Z,16.49
2018-07-13T02:39:38.348Z,16.50
2018-07-13T02:41:31.346Z,16.49
2018-07-13T02:42:31.429Z,16.36
2018-07-13T02:44:24.405Z,16.28
2018-07-13T02:45:24.475Z,16.28
2018-07-13T02:47:17.479Z,16.26
2018-07-13T02:48:17.534Z,16.17
2018-07-13T02:50:10.537Z,16.21
2018-07-13T02:51:10.597Z,16.13
2018-07-13T02:53:03.622Z,16.15
2018-07-13T02:54:03.673Z,16.20
2018-07-13T02:55:56.665Z,16.12
2018-07-13T02:56:56.726Z,16.15
2018-07-13T02:58:49.737Z,16.16
2018-07-13T02:59:49.803Z,16.20
2018-07-13T03:01:42.792Z,16.17
2018-07-13T03:02:42.913Z,16.28
2018-07-13T03:04:35.841Z,16.26
2018-07-13T03:05:35.907Z,16.26
2018-07-13T03:07:28.950Z,16.20
2018-07-13T03:08:28.960Z,16.35
2018-07-13T03:10:21.964Z,16.36
2018-07-13T03:11:22.026Z,16.38
2018-07-13T03:13:15.026Z,16.54
2018-07-13T03:14:15.106Z,16.50
2018-07-13T03:16:08.090Z,16.56
2018-07-13T03:17:08.147Z,16.53
2018-07-13T03:19:01.189Z,16.60
2018-07-13T03:20:01.229Z,16.64
2018-07-13T03:21:54.280Z,16.72
2018-07-13T03:22:54.299Z,16.71
2018-07-13T03:24:47.311Z,16.79
2018-07-13T03:25:47.379Z,16.78
2018-07-13T03:27:40.432Z,16.79
2018-07-13T03:28:40.457Z,16.83
2018-07-13T03:30:33.457Z,16.86
2018-07-13T03:31:33.517Z,16.86
2018-07-13T03:33:26.535Z,16.90
2018-07-13T03:34:26.620Z,16.86
2018-07-13T03:36:19.538Z,16.91
2018-07-13T03:37:19.588Z,16.96
2018-07-13T03:39:12.618Z,16.91
2018-07-13T03:40:12.652Z,17.04
2018-07-13T03:42:05.752Z,17.02
2018-07-13T03:43:05.727Z,16.93
2018-07-13T03:44:58.752Z,16.87
2018-07-13T03:45:58.778Z,16.99
2018-07-13T03:47:51.766Z,17.01
2018-07-13T03:48:51.822Z,17.04
2018-07-13T03:50:44.900Z,17.02
2018-07-13T03:51:44.877Z,17.09
2018-07-13T03:53:37.869Z,17.05
2018-07-13T03:54:37.930Z,16.99
2018-07-13T03:56:30.930Z,16.97
2018-07-13T03:57:31.004Z,16.94
2018-07-13T03:59:23.995Z,17.08
2018-07-13T04:00:24.065Z,17.11
2018-07-13T04:02:17.059Z,16.99
2018-07-13T04:03:17.145Z,17.11
2018-07-13T04:05:10.109Z,17.12
2018-07-13T04:06:10.172Z,17.05
2018-07-13T04:08:03.170Z,17.08
2018-07-13T04:09:03.226Z,17.15
2018-07-13T04:10:56.226Z,17.19
2018-07-13T04:11:56.292Z,17.16
2018-07-13T04:13:49.283Z,17.14
2018-07-13T04:14:49.392Z,17.15
2018-07-13T04:16:42.417Z,17.19
2018-07-13T04:17:42.474Z,17.16
2018-07-13T04:19:35.466Z,17.22
2018-07-13T04:20:35.535Z,17.20
2018-07-13T04:22:28.528Z,17.14
2018-07-13T04:23:28.587Z,17.22
2018-07-13T04:25:21.584Z,17.12
2018-07-13T04:26:21.646Z,17.08
2018-07-13T04:28:14.653Z,17.08
2018-07-13T04:29:14.701Z,17.08
2018-07-13T04:31:07.699Z,17.12
2018-07-13T04:32:07.776Z,17.02
2018-07-13T04:34:00.752Z,17.12
2018-07-13T04:35:00.816Z,17.08
2018-07-13T04:36:53.848Z,17.06
2018-07-13T04:37:53.873Z,17.02
2018-07-13T04:39:46.922Z,16.93
2018-07-13T04:40:46.954Z,16.97
2018-07-13T04:42:39.942Z,16.99
2018-07-13T04:43:40.000Z,16.96
2018-07-13T04:45:33.169Z,16.91
2018-07-13T04:46:33.556Z,16.91
2018-07-13T04:48:27.050Z,16.83
2018-07-13T04:49:27.021Z,16.93
2018-07-13T04:51:19.626Z,17.01
2018-07-13T04:52:19.607Z,17.01
2018-07-13T04:54:12.760Z,17.15
2018-07-13T04:55:12.571Z,17.33
2018-07-13T04:57:05.691Z,17.33
2018-07-13T04:58:05.764Z,17.36
2018-07-13T05:00:10.244Z,17.38
2018-07-13T05:01:10.063Z,17.41
2018-07-13T05:03:03.051Z,17.36
2018-07-13T05:04:03.232Z,17.39
2018-07-13T05:05:56.595Z,17.48
2018-07-13T05:06:57.042Z,17.36
2018-07-13T05:08:49.409Z,17.44
2018-07-13T05:09:49.218Z,17.38
2018-07-13T05:11:42.247Z,17.36
2018-07-13T05:12:42.279Z,17.39
2018-07-13T05:14:35.429Z,17.36
2018-07-13T05:15:35.372Z,17.57
2018-07-13T05:17:28.337Z,17.63
2018-07-13T05:18:28.419Z,17.64
2018-07-13T05:20:21.916Z,17.76
2018-07-13T05:21:21.983Z,17.87
2018-07-13T05:23:14.974Z,18.03
2018-07-13T05:24:15.034Z,18.16
2018-07-13T05:26:08.161Z,18.31
2018-07-13T05:27:08.127Z,18.28
2018-07-13T05:29:01.103Z,18.07
2018-07-13T05:30:01.136Z,18.13
2018-07-13T05:31:54.133Z,18.22
2018-07-13T05:32:54.222Z,18.22
2018-07-13T05:34:47.190Z,18.15
2018-07-13T05:35:47.253Z,18.19
2018-07-13T05:37:40.263Z,18.15
2018-07-13T05:38:40.326Z,18.16
2018-07-13T05:40:33.316Z,18.16
2018-07-13T05:41:33.386Z,18.10
2018-07-13T05:43:26.405Z,18.08
2018-07-13T05:44:26.448Z,18.13
2018-07-13T05:46:19.485Z,18.25
2018-07-13T05:47:19.529Z,18.11
2018-07-13T05:49:12.504Z,18.25
2018-07-13T05:50:12.551Z,18.22
2018-07-13T05:52:05.658Z,18.15
2018-07-13T05:53:05.634Z,18.05
2018-07-13T05:54:58.801Z,18.18
2018-07-13T05:55:58.692Z,18.04
2018-07-13T05:57:51.779Z,18.31
2018-07-13T05:58:51.802Z,18.35
2018-07-13T06:00:44.808Z,18.63
2018-07-13T06:01:44.787Z,18.78
2018-07-13T06:03:37.802Z,19.09
2018-07-13T06:04:37.859Z,19.47
2018-07-13T06:06:30.946Z,19.71
2018-07-13T06:07:30.925Z,19.64
2018-07-13T06:09:23.928Z,19.55
2018-07-13T06:10:23.994Z,19.51
2018-07-13T06:12:17.046Z,19.59
2018-07-13T06:13:17.051Z,19.56
2018-07-13T06:15:10.143Z,19.56
2018-07-13T06:16:10.131Z,19.47
2018-07-13T06:18:03.152Z,19.49
2018-07-13T06:19:03.203Z,19.36
2018-07-13T06:20:56.953Z,19.18
2018-07-13T06:21:56.774Z,19.08
2018-07-13T06:23:49.791Z,19.22
2018-07-13T06:24:49.839Z,19.55
2018-07-13T06:26:42.895Z,22.43
2018-07-13T06:27:42.937Z,23.69
2018-07-13T06:29:35.902Z,22.75
2018-07-13T06:30:35.946Z,22.15
2018-07-13T06:32:28.986Z,21.29
2018-07-13T06:33:29.034Z,20.97
2018-07-13T06:35:22.059Z,20.47
2018-07-13T06:36:22.086Z,20.13
2018-07-13T06:38:15.260Z,19.96
2018-07-13T06:39:15.142Z,19.56
2018-07-13T06:41:08.294Z,19.51
2018-07-13T06:42:08.207Z,19.44
2018-07-13T06:44:01.312Z,19.37
2018-07-13T06:45:01.272Z,19.41
2018-07-13T06:46:54.293Z,19.19
2018-07-13T06:47:54.354Z,19.14
2018-07-13T06:49:47.513Z,18.98
2018-07-13T06:50:47.517Z,18.96
2018-07-13T06:52:40.421Z,19.08
2018-07-13T06:53:40.493Z,19.21
2018-07-13T06:55:33.489Z,19.29
2018-07-13T06:56:33.535Z,19.40
2018-07-13T06:58:26.546Z,19.41
2018-07-13T06:59:26.601Z,19.66
2018-07-13T07:01:19.602Z,20.00
2018-07-13T07:02:19.672Z,19.96
2018-07-13T07:04:12.674Z,20.21
2018-07-13T07:05:12.763Z,21.30
2018-07-13T07:07:05.735Z,20.88
2018-07-13T07:08:05.812Z,20.72
2018-07-13T07:09:58.814Z,20.63
2018-07-13T07:10:58.909Z,21.14
2018-07-13T07:12:51.870Z,22.47
2018-07-13T07:13:51.964Z,22.54
2018-07-13T07:15:44.958Z,21.69
2018-07-13T07:16:45.017Z,21.82
2018-07-13T07:18:38.137Z,21.98
2018-07-13T07:19:38.082Z,23.78
2018-07-13T07:21:31.072Z,22.44
2018-07-13T07:22:31.138Z,22.10
2018-07-13T07:24:24.193Z,21.60
2018-07-13T07:25:24.388Z,21.37
2018-07-13T07:27:17.268Z,21.43
2018-07-13T07:28:17.362Z,21.70
2018-07-13T07:30:10.438Z,23.34
2018-07-13T07:31:10.375Z,22.99
2018-07-13T07:33:03.548Z,25.69
2018-07-13T07:34:03.423Z,27.67
2018-07-13T07:35:56.455Z,28.88
2018-07-13T07:36:56.527Z,29.59
2018-07-13T07:38:49.855Z,28.08
2018-07-13T07:39:49.639Z,27.14
2018-07-13T07:41:42.909Z,26.97
2018-07-13T07:42:42.688Z,26.26
2018-07-13T07:44:35.903Z,26.53
2018-07-13T07:45:35.748Z,25.80
2018-07-13T07:47:28.950Z,24.85
2018-07-13T07:48:28.832Z,24.91
2018-07-13T07:50:21.875Z,28.04
2018-07-13T07:51:21.911Z,29.20
2018-07-13T07:53:14.957Z,30.05
2018-07-13T07:54:15.022Z,30.62
2018-07-13T07:56:08.262Z,30.88
2018-07-13T07:57:08.111Z,31.29
2018-07-13T07:59:01.430Z,31.33
2018-07-13T08:00:01.187Z,30.54
2018-07-13T08:01:54.473Z,31.43
2018-07-13T08:02:54.286Z,31.76
2018-07-13T08:04:47.540Z,32.71
2018-07-13T08:05:47.376Z,33.00
2018-07-13T08:07:40.646Z,33.62
2018-07-13T08:08:40.531Z,33.96
2018-07-13T08:10:33.709Z,33.71
2018-07-13T08:11:33.604Z,33.86
2018-07-13T08:13:26.877Z,34.08
2018-07-13T08:14:26.807Z,34.21
2018-07-13T08:16:19.964Z,34.48
2018-07-13T08:17:19.787Z,34.62
2018-07-13T08:19:12.840Z,34.66
2018-07-13T08:20:12.948Z,34.86
2018-07-13T08:22:06.125Z,34.88
2018-07-13T08:23:05.994Z,35.27
2018-07-13T08:24:59.018Z,36.39
2018-07-13T08:25:59.168Z,36.81
2018-07-13T08:27:52.381Z,36.73
2018-07-13T08:28:52.242Z,36.96
2018-07-13T08:30:45.372Z,36.68
2018-07-13T08:31:45.328Z,36.88
2018-07-13T08:33:38.359Z,37.26
2018-07-13T08:34:38.410Z,37.08
2018-07-13T08:36:31.735Z,37.07
2018-07-13T08:37:31.531Z,37.39
2018-07-13T08:39:24.771Z,36.74
2018-07-13T08:40:24.641Z,36.46
2018-07-13T08:42:17.814Z,36.74
2018-07-13T08:43:17.824Z,37.15
2018-07-13T08:45:10.830Z,37.13
2018-07-13T08:46:10.872Z,37.44
2018-07-13T08:48:04.006Z,35.12
2018-07-13T08:49:04.016Z,35.30
2018-07-13T08:50:57.055Z,35.10
2018-07-13T08:51:57.148Z,35.11
2018-07-13T08:53:50.207Z,35.86
2018-07-13T08:54:50.238Z,35.88
2018-07-13T08:56:43.262Z,36.07
2018-07-13T08:57:43.309Z,36.31
2018-07-13T08:59:36.468Z,36.36
2018-07-13T09:00:36.466Z,36.62
2018-07-13T09:02:29.543Z,36.58
2018-07-13T09:03:29.540Z,36.58
2018-07-13T09:05:22.602Z,37.08
2018-07-13T09:06:22.699Z,37.17
2018-07-13T09:08:15.778Z,37.47
2018-07-13T09:09:15.809Z,37.45
2018-07-13T09:11:08.846Z,36.36
2018-07-13T09:12:08.910Z,35.78
2018-07-13T09:14:02.000Z,35.37
2018-07-13T09:15:02.021Z,35.71
2018-07-13T09:16:55.072Z,36.61
2018-07-13T09:17:55.171Z,36.62
2018-07-13T09:19:48.561Z,36.76
2018-07-13T09:20:48.282Z,35.36
2018-07-13T09:22:41.359Z,33.96
2018-07-13T09:23:41.443Z,34.25
2018-07-13T09:25:34.500Z,35.30
2018-07-13T09:26:34.499Z,35.33
2018-07-13T09:28:27.526Z,35.24
2018-07-13T09:29:27.623Z,35.26
2018-07-13T09:31:20.775Z,35.98
2018-07-13T09:32:20.724Z,35.85
2018-07-13T09:34:13.772Z,35.61
2018-07-13T09:35:13.846Z,35.49
2018-07-13T09:37:06.880Z,34.73
2018-07-13T09:38:07.236Z,33.79
2018-07-13T09:40:00.009Z,31.94
2018-07-13T09:41:00.054Z,30.54
2018-07-13T09:42:53.167Z,29.65
2018-07-13T09:43:53.348Z,29.35
2018-07-13T09:45:46.310Z,29.10
2018-07-13T09:46:46.537Z,29.02
2018-07-13T09:48:39.623Z,28.85
2018-07-13T09:49:39.391Z,28.47
2018-07-13T09:51:32.638Z,28.20
2018-07-13T09:52:32.798Z,28.11
2018-07-13T09:54:25.514Z,28.30
2018-07-13T09:55:25.684Z,28.32
2018-07-13T09:57:18.641Z,28.05
2018-07-13T09:58:18.970Z,27.93
2018-07-13T10:01:13.348Z,27.44
2018-07-13T10:03:05.406Z,27.37
2018-07-13T10:04:05.054Z,27.40
2018-07-13T10:05:58.080Z,27.47
2018-07-13T10:06:58.555Z,27.37
2018-07-13T10:08:51.196Z,27.22
2018-07-13T10:09:51.604Z,26.96
2018-07-13T10:11:44.562Z,26.97
2018-07-13T10:12:44.326Z,27.08
2018-07-13T10:14:37.535Z,26.99
2018-07-13T10:15:37.415Z,26.92
2018-07-13T10:17:30.426Z,27.15
2018-07-13T10:18:30.737Z,26.93
2018-07-13T10:20:24.149Z,26.88
2018-07-13T10:21:24.187Z,26.80
2018-07-13T10:23:17.355Z,26.56
2018-07-13T10:24:17.303Z,26.45
2018-07-13T10:26:10.243Z,26.43
2018-07-13T10:27:10.324Z,26.41
2018-07-13T10:29:03.270Z,26.21
2018-07-13T10:30:03.689Z,26.28
2018-07-13T10:31:56.676Z,26.51
2018-07-13T10:32:56.417Z,26.48
2018-07-13T10:34:49.623Z,26.74
2018-07-13T10:35:49.500Z,26.88
2018-07-13T10:37:42.845Z,26.73
2018-07-13T10:38:42.586Z,26.51
2018-07-13T10:40:35.733Z,26.43
2018-07-13T10:41:36.288Z,26.31
2018-07-13T10:43:28.821Z,26.43
2018-07-13T10:44:28.927Z,26.52
2018-07-13T10:46:21.858Z,26.38
2018-07-13T10:47:21.965Z,26.33
2018-07-13T10:49:14.984Z,26.38
2018-07-13T10:50:14.922Z,26.28
2018-07-13T10:52:08.144Z,26.22
2018-07-13T10:53:07.988Z,26.31
2018-07-13T10:55:01.135Z,26.26
2018-07-13T10:56:01.073Z,26.31
2018-07-13T10:57:54.119Z,26.48
2018-07-13T10:58:54.144Z,26.51
2018-07-13T11:00:47.229Z,26.52
2018-07-13T11:01:47.222Z,26.51
2018-07-13T11:03:40.398Z,26.44
2018-07-13T11:04:40.384Z,26.25
2018-07-13T11:06:33.562Z,26.06
2018-07-13T11:07:33.378Z,26.09
2018-07-13T11:09:26.456Z,26.21
2018-07-13T11:10:26.457Z,26.19
2018-07-13T11:12:19.468Z,26.36
2018-07-13T11:13:19.533Z,26.31
2018-07-13T11:15:12.876Z,26.21
2018-07-13T11:16:12.611Z,26.15
2018-07-13T11:18:06.006Z,26.07
2018-07-13T11:19:05.695Z,26.22
2018-07-13T11:20:59.568Z,26.21
2018-07-13T11:21:59.622Z,26.25
2018-07-13T11:23:52.739Z,26.43
2018-07-13T11:24:52.821Z,26.55
2018-07-13T11:26:45.512Z,26.52
2018-07-13T11:27:45.423Z,26.31
2018-07-13T11:29:38.442Z,26.25
2018-07-13T11:30:38.499Z,26.26
2018-07-13T11:32:31.515Z,26.25
2018-07-13T11:33:31.577Z,26.18
2018-07-13T11:35:24.589Z,26.10
2018-07-13T11:36:24.652Z,26.10
2018-07-13T11:38:17.657Z,26.13
2018-07-13T11:39:17.733Z,26.07
2018-07-13T11:41:10.738Z,26.19
2018-07-13T11:42:10.800Z,26.21
2018-07-13T11:44:03.810Z,26.22
2018-07-13T11:45:03.886Z,26.44
2018-07-13T11:46:56.884Z,26.43
2018-07-13T11:47:56.945Z,26.41
2018-07-13T11:49:49.952Z,26.41
2018-07-13T11:50:50.024Z,26.48
2018-07-13T11:52:43.031Z,26.55
2018-07-13T11:53:43.099Z,26.55
2018-07-13T11:55:36.124Z,26.56
2018-07-13T11:56:36.187Z,26.51
2018-07-13T11:58:29.208Z,26.55
2018-07-13T11:59:29.269Z,26.45
2018-07-13T12:01:22.269Z,26.25
2018-07-13T12:02:22.355Z,26.23
2018-07-13T12:04:15.381Z,26.34
2018-07-13T12:05:15.421Z,26.33
2018-07-13T12:07:08.427Z,26.25
2018-07-13T12:08:08.854Z,26.34
2018-07-13T12:10:01.574Z,26.34
2018-07-13T12:11:01.584Z,26.33
2018-07-13T12:12:54.577Z,26.40
2018-07-13T12:13:54.649Z,26.40
2018-07-13T12:15:47.650Z,26.51
2018-07-13T12:16:47.711Z,26.43
2018-07-13T12:18:40.718Z,26.40
2018-07-13T12:19:40.786Z,26.38
2018-07-13T12:21:33.795Z,26.45
2018-07-13T12:22:33.857Z,26.52
2018-07-13T12:24:26.864Z,26.59
2018-07-13T12:25:26.930Z,26.62
2018-07-13T12:27:19.941Z,26.63
2018-07-13T12:28:20.001Z,26.81
2018-07-13T12:30:13.006Z,26.83
2018-07-13T12:31:13.071Z,26.71
2018-07-13T12:33:06.159Z,26.77
2018-07-13T12:34:06.147Z,26.75
2018-07-13T12:35:59.191Z,26.63
2018-07-13T12:36:59.231Z,26.56
2018-07-13T12:38:52.233Z,26.52
2018-07-13T12:39:52.370Z,26.60
2018-07-13T12:41:45.826Z,26.56
2018-07-13T12:42:45.883Z,26.52
2018-07-13T12:44:38.889Z,26.37
2018-07-13T12:45:38.957Z,26.29
2018-07-13T12:47:31.966Z,26.31
2018-07-13T12:48:32.025Z,26.38
2018-07-13T12:50:25.035Z,26.51
2018-07-13T12:51:25.104Z,26.56
2018-07-13T12:53:18.117Z,26.48
2018-07-13T12:54:18.237Z,26.44
2018-07-13T12:56:11.192Z,26.51
2018-07-13T12:57:11.260Z,26.44
2018-07-13T12:59:04.261Z,26.52
2018-07-13T13:00:04.329Z,26.52
2018-07-13T13:01:57.337Z,26.56
2018-07-13T13:02:57.398Z,26.48
2018-07-13T13:04:50.414Z,26.47
2018-07-13T13:05:50.475Z,26.44
2018-07-13T13:07:43.484Z,26.63
2018-07-13T13:08:43.547Z,26.62
2018-07-13T13:10:36.550Z,26.73
2018-07-13T13:11:36.621Z,26.70
2018-07-13T13:13:29.668Z,26.84
2018-07-13T13:14:29.703Z,26.74
2018-07-13T13:16:22.802Z,26.74
2018-07-13T13:17:22.779Z,26.74
2018-07-13T13:19:15.784Z,26.84
2018-07-13T13:20:15.864Z,26.78
2018-07-13T13:22:09.400Z,26.83
2018-07-13T13:23:09.450Z,26.92
2018-07-13T13:25:02.438Z,26.85
2018-07-13T13:26:02.532Z,26.84
2018-07-13T13:27:55.591Z,26.75
2018-07-13T13:28:55.618Z,26.75
2018-07-13T13:30:48.599Z,26.73
2018-07-13T13:31:48.685Z,26.77
2018-07-13T13:33:41.657Z,26.80
2018-07-13T13:34:41.744Z,26.83
2018-07-13T13:36:34.727Z,26.88
2018-07-13T13:37:34.793Z,26.90
2018-07-13T13:39:27.797Z,26.93
2018-07-13T13:40:27.884Z,27.17
2018-07-13T13:42:20.878Z,27.29
2018-07-13T13:43:20.954Z,27.29
2018-07-13T13:45:13.956Z,27.30
2018-07-13T13:46:14.015Z,27.30
2018-07-13T13:48:07.073Z,27.30
2018-07-13T13:49:07.091Z,27.35
2018-07-13T13:51:00.162Z,27.25
2018-07-13T13:52:00.173Z,27.12
2018-07-13T13:53:53.188Z,27.10
2018-07-13T13:54:53.244Z,27.11
2018-07-13T13:56:46.256Z,27.21
2018-07-13T13:57:46.363Z,27.20
2018-07-13T13:59:39.325Z,27.37
2018-07-13T14:00:39.404Z,27.39
2018-07-13T14:02:32.435Z,27.26
2018-07-13T14:03:32.474Z,27.18
2018-07-13T14:05:25.541Z,27.21
2018-07-13T14:06:25.546Z,27.21
2018-07-13T14:08:18.555Z,27.17
2018-07-13T14:09:18.705Z,27.21
2018-07-13T14:11:11.627Z,27.26
2018-07-13T14:12:11.805Z,27.30
2018-07-13T14:14:04.767Z,27.40
2018-07-13T14:15:04.789Z,27.40
2018-07-13T14:16:57.795Z,27.37
2018-07-13T14:17:57.873Z,27.35
2018-07-13T14:19:50.854Z,27.10
2018-07-13T14:20:50.919Z,27.02
2018-07-13T14:22:43.944Z,26.95
2018-07-13T14:23:44.000Z,26.93
2018-07-13T14:25:37.064Z,27.00
2018-07-13T14:26:37.083Z,27.08
2018-07-13T14:28:30.086Z,27.05
2018-07-13T14:29:30.146Z,27.02
2018-07-13T14:31:23.167Z,27.05
2018-07-13T14:32:23.338Z,27.12
2018-07-13T14:34:16.311Z,27.18
2018-07-13T14:35:16.301Z,27.22
2018-07-13T14:37:09.304Z,27.12
2018-07-13T14:38:09.367Z,27.03
2018-07-13T14:40:02.442Z,27.03
2018-07-13T14:41:02.449Z,27.10
2018-07-13T14:42:55.459Z,27.05
2018-07-13T14:43:55.519Z,26.97
2018-07-13T14:45:48.524Z,26.99
2018-07-13T14:46:48.648Z,27.07
2018-07-13T14:48:41.606Z,27.21
2018-07-13T14:49:41.666Z,27.29
2018-07-13T14:51:34.671Z,27.25
2018-07-13T14:52:34.740Z,27.25
2018-07-13T14:54:27.751Z,27.07
2018-07-13T14:55:27.815Z,26.92
2018-07-13T14:57:20.833Z,26.93
2018-07-13T14:58:20.895Z,26.90
2018-07-13T15:00:13.937Z,26.89
2018-07-13T15:01:14.004Z,26.89
2018-07-13T15:03:07.012Z,26.81
2018-07-13T15:04:07.103Z,26.89
2018-07-13T15:06:00.132Z,26.92
2018-07-13T15:07:00.149Z,26.96
2018-07-13T15:08:53.159Z,27.05
2018-07-13T15:09:53.221Z,27.07
2018-07-13T15:11:46.228Z,27.00
2018-07-13T15:12:46.292Z,27.00
2018-07-13T15:14:39.301Z,27.22
2018-07-13T15:15:39.362Z,27.22
2018-07-13T15:17:32.382Z,27.25
2018-07-13T15:18:32.459Z,27.35
2018-07-13T15:20:25.442Z,27.40
2018-07-13T15:21:25.514Z,27.27
2018-07-13T15:23:18.546Z,27.29
2018-07-13T15:24:18.581Z,27.37
2018-07-13T15:26:11.588Z,27.45
2018-07-13T15:27:11.654Z,27.37
2018-07-13T15:29:04.716Z,27.35
2018-07-13T15:30:04.730Z,27.32
2018-07-13T15:31:57.847Z,27.15
2018-07-13T15:32:57.797Z,27.15
2018-07-13T15:34:50.948Z,27.20
2018-07-13T15:35:50.966Z,27.25
2018-07-13T15:37:43.941Z,27.11
2018-07-13T15:38:44.044Z,26.96
2018-07-13T15:40:37.161Z,26.95
2018-07-13T15:41:37.448Z,26.95
2018-07-13T15:43:30.384Z,27.07
2018-07-13T15:44:30.402Z,27.14
2018-07-13T15:46:23.595Z,26.99
2018-07-13T15:47:23.550Z,26.90
2018-07-13T15:49:17.143Z,26.92
2018-07-13T15:50:16.478Z,26.95
2018-07-13T15:52:09.670Z,26.96
2018-07-13T15:53:10.706Z,27.10
2018-07-13T15:55:02.749Z,27.15
2018-07-13T15:56:02.438Z,27.14
2018-07-13T15:57:55.870Z,27.20
2018-07-13T15:58:55.753Z,27.17
2018-07-13T16:00:48.632Z,27.15
2018-07-13T16:01:48.683Z,27.14
2018-07-13T16:03:41.762Z,27.03
2018-07-13T16:04:41.646Z,26.99
2018-07-13T16:06:34.799Z,27.12
2018-07-13T16:07:34.734Z,27.12
2018-07-13T16:09:27.816Z,27.05
2018-07-13T16:10:27.794Z,27.14
2018-07-13T16:12:20.804Z,27.12
2018-07-13T16:13:21.096Z,27.10
2018-07-13T16:15:13.909Z,27.12
2018-07-13T16:16:13.985Z,27.07
2018-07-13T16:18:06.962Z,27.02
2018-07-13T16:19:07.100Z,26.99
2018-07-13T16:21:00.067Z,26.95
2018-07-13T16:22:00.089Z,26.95
2018-07-13T16:23:53.097Z,26.99
2018-07-13T16:24:53.166Z,26.90
2018-07-13T16:26:46.215Z,26.99
2018-07-13T16:27:46.236Z,27.03
2018-07-13T16:29:39.274Z,27.03
2018-07-13T16:30:39.377Z,27.12
2018-07-13T16:32:33.838Z,27.02
2018-07-13T16:33:33.918Z,27.02
2018-07-13T16:35:27.112Z,26.97
2018-07-13T16:36:26.976Z,27.03
2018-07-13T16:38:20.002Z,26.90
2018-07-13T16:39:20.096Z,26.85
2018-07-13T16:41:13.049Z,26.84
2018-07-13T16:42:13.191Z,26.80
2018-07-13T16:44:06.153Z,26.81
2018-07-13T16:45:06.356Z,26.70
2018-07-13T16:46:59.222Z,26.68
2018-07-13T16:47:59.276Z,26.60
2018-07-13T16:49:52.287Z,26.56
2018-07-13T16:50:52.435Z,26.58
2018-07-13T16:52:45.352Z,26.44
2018-07-13T16:53:45.437Z,26.56
2018-07-13T16:55:38.506Z,26.47
2018-07-13T16:56:38.593Z,26.48
2018-07-13T16:58:31.504Z,26.41
2018-07-13T16:59:31.787Z,26.41
2018-07-13T17:01:24.577Z,26.31
2018-07-13T17:02:24.645Z,26.37
2018-07-13T17:04:17.648Z,26.41
2018-07-13T17:05:17.710Z,26.34
2018-07-13T17:07:10.711Z,26.36
2018-07-13T17:08:10.780Z,26.44
2018-07-13T17:10:03.792Z,26.41
2018-07-13T17:11:03.858Z,26.38
2018-07-13T17:12:56.905Z,26.52
2018-07-13T17:13:56.987Z,26.55
2018-07-13T17:15:49.986Z,26.45
2018-07-13T17:16:50.061Z,26.52
2018-07-13T17:18:43.048Z,26.51
2018-07-13T17:19:43.109Z,26.45
2018-07-13T17:21:36.118Z,26.45
2018-07-13T17:22:36.181Z,26.40
2018-07-13T17:24:29.220Z,26.40
2018-07-13T17:25:29.249Z,26.45
2018-07-13T17:27:22.254Z,26.44
2018-07-13T17:28:22.323Z,26.47
2018-07-13T17:30:15.330Z,26.45
2018-07-13T17:31:15.394Z,26.52
2018-07-13T17:33:08.397Z,26.53
2018-07-13T17:34:08.463Z,26.58
2018-07-13T17:36:02.975Z,26.53
2018-07-13T17:37:03.040Z,26.65
2018-07-13T17:38:56.054Z,26.56
2018-07-13T17:39:56.156Z,26.60
2018-07-13T17:41:49.119Z,26.55
2018-07-13T17:42:49.247Z,26.62
2018-07-13T17:44:42.314Z,26.59
2018-07-13T17:45:42.259Z,26.56
2018-07-13T17:47:35.261Z,26.55
2018-07-13T17:48:35.331Z,26.55
2018-07-13T17:50:28.342Z,26.37
2018-07-13T17:51:28.405Z,26.34
2018-07-13T17:53:21.420Z,26.37
2018-07-13T17:54:21.479Z,26.34
2018-07-13T17:56:14.486Z,26.37
2018-07-13T17:57:14.548Z,26.25
2018-07-13T17:59:07.555Z,26.25
2018-07-13T18:00:07.619Z,26.22
2018-07-13T18:02:00.627Z,26.25
2018-07-13T18:03:00.690Z,26.22
2018-07-13T18:04:53.701Z,26.06
2018-07-13T18:05:53.763Z,26.03
2018-07-13T18:07:46.766Z,26.06
2018-07-13T18:08:46.835Z,25.98
2018-07-13T18:10:39.840Z,26.05
2018-07-13T18:11:39.905Z,26.05
2018-07-13T18:13:32.963Z,25.95
2018-07-13T18:14:32.976Z,25.95
2018-07-13T18:16:25.982Z,25.72
2018-07-13T18:17:26.045Z,25.75
2018-07-13T18:19:19.051Z,25.70
2018-07-13T18:20:19.116Z,25.59
2018-07-13T18:22:12.120Z,25.70
2018-07-13T18:23:12.185Z,25.68
2018-07-13T18:25:05.189Z,25.68
2018-07-13T18:26:05.253Z,25.70
2018-07-13T18:27:58.258Z,25.60
2018-07-13T18:28:58.319Z,25.59
2018-07-13T18:30:51.335Z,25.63
2018-07-13T18:31:51.394Z,25.63
2018-07-13T18:33:44.394Z,25.54
2018-07-13T18:34:44.463Z,25.55
2018-07-13T18:36:37.977Z,25.47